sensor_id;sensor_type;location;lat;lon;timestamp;P1;durP1;ratioP1;P2;durP2;ratioP2
56427;SDS011;42331;53.578;9.760;2024-02-21T00:00:42;28.50;;;11.23;;
56427;SDS011;42331;53.578;9.760;2024-02-21T00:03:13;32.73;;;14.53;;
56427;SDS011;42331;53.578;9.760;2024-02-21T00:05:45;34.07;;;14.33;;
56427;SDS011;42331;53.578;9.760;2024-02-21T00:08:19;44.70;;;15.25;;
56427;SDS011;42331;53.578;9.760;2024-02-21T00:10:50;34.83;;;14.93;;
56427;SDS011;42331;53.578;9.760;2024-02-21T00:13:21;38.08;;;15.60;;
56427;SDS011;42331;53.578;9.760;2024-02-21T00:15:53;35.42;;;15.52;;
56427;SDS011;42331;53.578;9.760;2024-02-21T00:18:24;31.33;;;12.13;;
56427;SDS011;42331;53.578;9.760;2024-02-21T00:20:55;33.55;;;15.35;;
56427;SDS011;42331;53.578;9.760;2024-02-21T00:23:27;33.28;;;15.93;;
56427;SDS011;42331;53.578;9.760;2024-02-21T00:26:07;42.00;;;15.77;;
56427;SDS011;42331;53.578;9.760;2024-02-21T00:28:38;33.50;;;15.60;;
56427;SDS011;42331;53.578;9.760;2024-02-21T00:31:10;34.65;;;15.43;;
56427;SDS011;42331;53.578;9.760;2024-02-21T00:33:41;36.90;;;15.93;;
56427;SDS011;42331;53.578;9.760;2024-02-21T00:36:15;36.40;;;16.83;;
56427;SDS011;42331;53.578;9.760;2024-02-21T00:38:46;31.67;;;12.52;;
56427;SDS011;42331;53.578;9.760;2024-02-21T00:41:25;37.38;;;16.63;;
56427;SDS011;42331;53.578;9.760;2024-02-21T00:43:56;39.43;;;16.13;;
56427;SDS011;42331;53.578;9.760;2024-02-21T00:46:30;33.15;;;15.60;;
56427;SDS011;42331;53.578;9.760;2024-02-21T00:49:08;35.70;;;16.20;;
56427;SDS011;42331;53.578;9.760;2024-02-21T00:54:22;30.08;;;15.52;;
56427;SDS011;42331;53.578;9.760;2024-02-21T00:56:53;36.25;;;16.75;;
56427;SDS011;42331;53.578;9.760;2024-02-21T00:59:24;31.50;;;15.43;;
56427;SDS011;42331;53.578;9.760;2024-02-21T01:01:55;36.63;;;15.97;;
56427;SDS011;42331;53.578;9.760;2024-02-21T01:04:26;33.97;;;14.77;;
56427;SDS011;42331;53.578;9.760;2024-02-21T01:06:57;32.90;;;14.77;;
56427;SDS011;42331;53.578;9.760;2024-02-21T01:09:28;37.47;;;15.97;;
56427;SDS011;42331;53.578;9.760;2024-02-21T01:11:59;37.30;;;15.00;;
56427;SDS011;42331;53.578;9.760;2024-02-21T01:14:30;23.53;;;11.10;;
56427;SDS011;42331;53.578;9.760;2024-02-21T01:17:02;34.10;;;14.97;;
56427;SDS011;42331;53.578;9.760;2024-02-21T01:19:33;37.20;;;14.60;;
56427;SDS011;42331;53.578;9.760;2024-02-21T01:22:04;33.00;;;15.80;;
56427;SDS011;42331;53.578;9.760;2024-02-21T01:24:35;32.53;;;14.23;;
56427;SDS011;42331;53.578;9.760;2024-02-21T01:27:06;26.07;;;14.37;;
56427;SDS011;42331;53.578;9.760;2024-02-21T01:29:37;32.03;;;14.97;;
56427;SDS011;42331;53.578;9.760;2024-02-21T01:32:08;27.23;;;13.90;;
56427;SDS011;42331;53.578;9.760;2024-02-21T01:34:39;37.22;;;15.57;;
56427;SDS011;42331;53.578;9.760;2024-02-21T01:37:10;34.03;;;15.30;;
56427;SDS011;42331;53.578;9.760;2024-02-21T01:39:41;20.67;;;10.63;;
56427;SDS011;42331;53.578;9.760;2024-02-21T01:42:12;31.53;;;15.10;;
56427;SDS011;42331;53.578;9.760;2024-02-21T01:44:44;33.97;;;15.37;;
56427;SDS011;42331;53.578;9.760;2024-02-21T01:47:15;43.73;;;15.50;;
56427;SDS011;42331;53.578;9.760;2024-02-21T01:49:46;43.77;;;16.80;;
56427;SDS011;42331;53.578;9.760;2024-02-21T01:52:17;36.23;;;16.53;;
56427;SDS011;42331;53.578;9.760;2024-02-21T01:54:48;40.00;;;16.55;;
56427;SDS011;42331;53.578;9.760;2024-02-21T01:57:20;38.50;;;16.70;;
56427;SDS011;42331;53.578;9.760;2024-02-21T01:59:51;43.13;;;16.87;;
56427;SDS011;42331;53.578;9.760;2024-02-21T02:02:22;38.15;;;16.65;;
56427;SDS011;42331;53.578;9.760;2024-02-21T02:04:54;42.08;;;18.05;;
56427;SDS011;42331;53.578;9.760;2024-02-21T02:07:25;40.53;;;17.50;;
56427;SDS011;42331;53.578;9.760;2024-02-21T02:09:56;42.17;;;16.77;;
56427;SDS011;42331;53.578;9.760;2024-02-21T02:12:27;43.50;;;18.50;;
56427;SDS011;42331;53.578;9.760;2024-02-21T02:15:02;46.03;;;19.50;;
56427;SDS011;42331;53.578;9.760;2024-02-21T02:17:37;39.97;;;17.67;;
56427;SDS011;42331;53.578;9.760;2024-02-21T02:20:08;45.57;;;19.03;;
56427;SDS011;42331;53.578;9.760;2024-02-21T02:22:39;42.35;;;19.23;;
56427;SDS011;42331;53.578;9.760;2024-02-21T02:25:12;49.45;;;20.20;;
56427;SDS011;42331;53.578;9.760;2024-02-21T02:27:43;47.93;;;20.17;;
56427;SDS011;42331;53.578;9.760;2024-02-21T02:30:15;48.53;;;21.30;;
56427;SDS011;42331;53.578;9.760;2024-02-21T02:32:46;44.27;;;20.50;;
56427;SDS011;42331;53.578;9.760;2024-02-21T02:35:17;53.10;;;22.58;;
56427;SDS011;42331;53.578;9.760;2024-02-21T02:37:48;48.97;;;21.50;;
56427;SDS011;42331;53.578;9.760;2024-02-21T02:40:20;50.42;;;21.95;;
56427;SDS011;42331;53.578;9.760;2024-02-21T02:42:51;51.27;;;22.83;;
56427;SDS011;42331;53.578;9.760;2024-02-21T02:45:25;47.22;;;20.52;;
56427;SDS011;42331;53.578;9.760;2024-02-21T02:47:56;43.72;;;21.23;;
56427;SDS011;42331;53.578;9.760;2024-02-21T02:50:28;52.92;;;21.98;;
56427;SDS011;42331;53.578;9.760;2024-02-21T02:52:59;51.03;;;21.70;;
56427;SDS011;42331;53.578;9.760;2024-02-21T02:55:30;48.33;;;21.60;;
56427;SDS011;42331;53.578;9.760;2024-02-21T02:58:01;49.60;;;23.27;;
56427;SDS011;42331;53.578;9.760;2024-02-21T03:00:32;57.80;;;21.77;;
56427;SDS011;42331;53.578;9.760;2024-02-21T03:03:06;46.20;;;21.50;;
56427;SDS011;42331;53.578;9.760;2024-02-21T03:05:38;47.60;;;20.33;;
56427;SDS011;42331;53.578;9.760;2024-02-21T03:08:12;47.47;;;20.63;;
56427;SDS011;42331;53.578;9.760;2024-02-21T03:10:43;45.05;;;19.65;;
56427;SDS011;42331;53.578;9.760;2024-02-21T03:13:14;51.83;;;21.50;;
56427;SDS011;42331;53.578;9.760;2024-02-21T03:15:45;38.77;;;19.77;;
56427;SDS011;42331;53.578;9.760;2024-02-21T03:18:16;43.58;;;19.33;;
56427;SDS011;42331;53.578;9.760;2024-02-21T03:20:48;29.73;;;13.93;;
56427;SDS011;42331;53.578;9.760;2024-02-21T03:23:20;43.72;;;18.42;;
56427;SDS011;42331;53.578;9.760;2024-02-21T03:25:51;32.63;;;12.68;;
56427;SDS011;42331;53.578;9.760;2024-02-21T03:28:22;44.63;;;18.13;;
56427;SDS011;42331;53.578;9.760;2024-02-21T03:30:53;47.23;;;18.80;;
56427;SDS011;42331;53.578;9.760;2024-02-21T03:33:24;44.55;;;17.95;;
56427;SDS011;42331;53.578;9.760;2024-02-21T03:35:55;36.20;;;17.27;;
56427;SDS011;42331;53.578;9.760;2024-02-21T03:38:26;36.58;;;17.10;;
56427;SDS011;42331;53.578;9.760;2024-02-21T03:40:58;41.20;;;17.00;;
56427;SDS011;42331;53.578;9.760;2024-02-21T03:43:29;33.17;;;16.17;;
56427;SDS011;42331;53.578;9.760;2024-02-21T03:46:00;36.03;;;16.13;;
56427;SDS011;42331;53.578;9.760;2024-02-21T03:48:31;25.10;;;11.45;;
56427;SDS011;42331;53.578;9.760;2024-02-21T03:51:02;35.60;;;16.58;;
56427;SDS011;42331;53.578;9.760;2024-02-21T03:53:33;38.87;;;16.60;;
56427;SDS011;42331;53.578;9.760;2024-02-21T03:56:05;31.23;;;15.60;;
56427;SDS011;42331;53.578;9.760;2024-02-21T03:58:37;31.88;;;15.43;;
56427;SDS011;42331;53.578;9.760;2024-02-21T04:01:08;32.83;;;16.27;;
56427;SDS011;42331;53.578;9.760;2024-02-21T04:03:39;36.05;;;17.05;;
56427;SDS011;42331;53.578;9.760;2024-02-21T04:06:10;38.70;;;16.00;;
56427;SDS011;42331;53.578;9.760;2024-02-21T04:08:42;34.25;;;15.80;;
56427;SDS011;42331;53.578;9.760;2024-02-21T04:11:13;24.40;;;11.47;;
56427;SDS011;42331;53.578;9.760;2024-02-21T04:13:44;37.47;;;16.67;;
56427;SDS011;42331;53.578;9.760;2024-02-21T04:16:18;32.70;;;15.77;;
56427;SDS011;42331;53.578;9.760;2024-02-21T04:18:49;37.10;;;16.90;;
56427;SDS011;42331;53.578;9.760;2024-02-21T04:21:20;37.57;;;17.03;;
56427;SDS011;42331;53.578;9.760;2024-02-21T04:23:52;33.63;;;16.23;;
56427;SDS011;42331;53.578;9.760;2024-02-21T04:26:23;36.27;;;16.43;;
56427;SDS011;42331;53.578;9.760;2024-02-21T04:28:54;38.15;;;18.02;;
56427;SDS011;42331;53.578;9.760;2024-02-21T04:31:25;35.63;;;16.73;;
56427;SDS011;42331;53.578;9.760;2024-02-21T04:33:56;33.50;;;15.87;;
56427;SDS011;42331;53.578;9.760;2024-02-21T04:36:27;32.93;;;16.70;;
56427;SDS011;42331;53.578;9.760;2024-02-21T04:38:58;39.60;;;16.17;;
56427;SDS011;42331;53.578;9.760;2024-02-21T04:41:29;32.97;;;14.77;;
56427;SDS011;42331;53.578;9.760;2024-02-21T04:44:00;28.73;;;15.80;;
56427;SDS011;42331;53.578;9.760;2024-02-21T04:46:33;29.15;;;15.32;;
56427;SDS011;42331;53.578;9.760;2024-02-21T04:49:04;29.58;;;15.07;;
56427;SDS011;42331;53.578;9.760;2024-02-21T04:51:36;30.93;;;15.07;;
56427;SDS011;42331;53.578;9.760;2024-02-21T04:54:07;30.17;;;14.73;;
56427;SDS011;42331;53.578;9.760;2024-02-21T04:56:38;31.33;;;14.48;;
56427;SDS011;42331;53.578;9.760;2024-02-21T04:59:09;28.77;;;14.05;;
56427;SDS011;42331;53.578;9.760;2024-02-21T05:01:40;27.13;;;14.00;;
56427;SDS011;42331;53.578;9.760;2024-02-21T05:04:11;27.97;;;13.70;;
56427;SDS011;42331;53.578;9.760;2024-02-21T05:06:42;28.50;;;14.33;;
56427;SDS011;42331;53.578;9.760;2024-02-21T05:09:14;34.45;;;13.98;;
56427;SDS011;42331;53.578;9.760;2024-02-21T05:11:45;30.73;;;12.63;;
56427;SDS011;42331;53.578;9.760;2024-02-21T05:14:16;25.47;;;13.27;;
56427;SDS011;42331;53.578;9.760;2024-02-21T05:16:47;27.63;;;12.55;;
56427;SDS011;42331;53.578;9.760;2024-02-21T05:19:18;26.53;;;12.83;;
56427;SDS011;42331;53.578;9.760;2024-02-21T05:21:49;26.03;;;11.97;;
56427;SDS011;42331;53.578;9.760;2024-02-21T05:24:20;27.43;;;12.77;;
56427;SDS011;42331;53.578;9.760;2024-02-21T05:26:53;24.30;;;11.73;;
56427;SDS011;42331;53.578;9.760;2024-02-21T05:29:24;25.02;;;11.13;;
56427;SDS011;42331;53.578;9.760;2024-02-21T05:31:55;19.63;;;11.03;;
56427;SDS011;42331;53.578;9.760;2024-02-21T05:34:30;21.80;;;10.77;;
56427;SDS011;42331;53.578;9.760;2024-02-21T05:37:01;20.93;;;10.50;;
56427;SDS011;42331;53.578;9.760;2024-02-21T05:39:32;18.43;;;9.80;;
56427;SDS011;42331;53.578;9.760;2024-02-21T05:42:03;16.60;;;7.60;;
56427;SDS011;42331;53.578;9.760;2024-02-21T05:44:34;21.87;;;10.37;;
56427;SDS011;42331;53.578;9.760;2024-02-21T05:47:05;21.43;;;9.70;;
56427;SDS011;42331;53.578;9.760;2024-02-21T05:49:40;20.10;;;9.45;;
56427;SDS011;42331;53.578;9.760;2024-02-21T05:52:11;18.53;;;9.60;;
56427;SDS011;42331;53.578;9.760;2024-02-21T05:54:42;17.50;;;9.30;;
56427;SDS011;42331;53.578;9.760;2024-02-21T05:57:13;16.33;;;7.40;;
56427;SDS011;42331;53.578;9.760;2024-02-21T05:59:44;16.98;;;7.93;;
56427;SDS011;42331;53.578;9.760;2024-02-21T06:02:15;18.10;;;8.80;;
56427;SDS011;42331;53.578;9.760;2024-02-21T06:04:46;20.38;;;9.18;;
56427;SDS011;42331;53.578;9.760;2024-02-21T06:07:17;17.17;;;8.15;;
56427;SDS011;42331;53.578;9.760;2024-02-21T06:09:48;16.67;;;8.53;;
56427;SDS011;42331;53.578;9.760;2024-02-21T06:12:19;17.60;;;8.50;;
56427;SDS011;42331;53.578;9.760;2024-02-21T06:14:50;14.97;;;7.80;;
56427;SDS011;42331;53.578;9.760;2024-02-21T06:17:22;16.80;;;8.10;;
56427;SDS011;42331;53.578;9.760;2024-02-21T06:19:53;14.50;;;6.77;;
56427;SDS011;42331;53.578;9.760;2024-02-21T06:22:24;15.27;;;6.97;;
56427;SDS011;42331;53.578;9.760;2024-02-21T06:24:55;10.63;;;5.37;;
56427;SDS011;42331;53.578;9.760;2024-02-21T06:27:26;15.43;;;6.53;;
56427;SDS011;42331;53.578;9.760;2024-02-21T06:29:57;12.45;;;5.95;;
56427;SDS011;42331;53.578;9.760;2024-02-21T06:32:28;11.07;;;5.57;;
56427;SDS011;42331;53.578;9.760;2024-02-21T06:34:59;14.75;;;5.53;;
56427;SDS011;42331;53.578;9.760;2024-02-21T06:37:31;12.23;;;5.40;;
56427;SDS011;42331;53.578;9.760;2024-02-21T06:40:03;10.53;;;5.00;;
56427;SDS011;42331;53.578;9.760;2024-02-21T06:42:37;9.27;;;4.85;;
56427;SDS011;42331;53.578;9.760;2024-02-21T06:45:08;11.33;;;4.67;;
56427;SDS011;42331;53.578;9.760;2024-02-21T06:47:39;9.07;;;5.37;;
56427;SDS011;42331;53.578;9.760;2024-02-21T06:50:10;11.73;;;6.33;;
56427;SDS011;42331;53.578;9.760;2024-02-21T06:52:41;11.98;;;4.82;;
56427;SDS011;42331;53.578;9.760;2024-02-21T06:55:12;11.90;;;5.07;;
56427;SDS011;42331;53.578;9.760;2024-02-21T06:57:43;10.93;;;5.40;;
56427;SDS011;42331;53.578;9.760;2024-02-21T07:00:15;10.03;;;5.20;;
56427;SDS011;42331;53.578;9.760;2024-02-21T07:02:46;12.68;;;4.72;;
56427;SDS011;42331;53.578;9.760;2024-02-21T07:05:18;10.38;;;5.15;;
56427;SDS011;42331;53.578;9.760;2024-02-21T07:07:49;11.90;;;4.38;;
56427;SDS011;42331;53.578;9.760;2024-02-21T07:10:21;8.32;;;4.32;;
56427;SDS011;42331;53.578;9.760;2024-02-21T07:12:52;6.67;;;3.70;;
56427;SDS011;42331;53.578;9.760;2024-02-21T07:15:23;10.55;;;4.68;;
56427;SDS011;42331;53.578;9.760;2024-02-21T07:17:56;10.52;;;4.97;;
56427;SDS011;42331;53.578;9.760;2024-02-21T07:20:27;10.88;;;5.13;;
56427;SDS011;42331;53.578;9.760;2024-02-21T07:22:59;12.03;;;5.30;;
56427;SDS011;42331;53.578;9.760;2024-02-21T07:25:30;12.20;;;6.35;;
56427;SDS011;42331;53.578;9.760;2024-02-21T07:28:01;13.80;;;6.13;;
56427;SDS011;42331;53.578;9.760;2024-02-21T07:30:33;12.13;;;6.22;;
56427;SDS011;42331;53.578;9.760;2024-02-21T07:33:04;14.30;;;7.43;;
56427;SDS011;42331;53.578;9.760;2024-02-21T07:35:35;12.00;;;5.57;;
56427;SDS011;42331;53.578;9.760;2024-02-21T07:38:07;10.35;;;4.80;;
56427;SDS011;42331;53.578;9.760;2024-02-21T07:40:43;11.73;;;4.50;;
56427;SDS011;42331;53.578;9.760;2024-02-21T07:43:14;9.95;;;3.75;;
56427;SDS011;42331;53.578;9.760;2024-02-21T07:45:46;11.83;;;4.40;;
56427;SDS011;42331;53.578;9.760;2024-02-21T07:48:17;13.10;;;4.07;;
56427;SDS011;42331;53.578;9.760;2024-02-21T07:50:49;11.35;;;3.83;;
56427;SDS011;42331;53.578;9.760;2024-02-21T07:53:20;11.27;;;4.27;;
56427;SDS011;42331;53.578;9.760;2024-02-21T07:55:51;11.68;;;4.20;;
56427;SDS011;42331;53.578;9.760;2024-02-21T07:58:22;10.53;;;3.73;;
56427;SDS011;42331;53.578;9.760;2024-02-21T08:00:53;11.67;;;3.13;;
56427;SDS011;42331;53.578;9.760;2024-02-21T08:03:24;12.37;;;4.13;;
56427;SDS011;42331;53.578;9.760;2024-02-21T08:05:56;10.52;;;3.55;;
56427;SDS011;42331;53.578;9.760;2024-02-21T08:08:27;13.43;;;3.90;;
56427;SDS011;42331;53.578;9.760;2024-02-21T08:10:58;11.93;;;4.05;;
56427;SDS011;42331;53.578;9.760;2024-02-21T08:13:29;14.18;;;3.05;;
56427;SDS011;42331;53.578;9.760;2024-02-21T08:16:00;23.65;;;3.80;;
56427;SDS011;42331;53.578;9.760;2024-02-21T08:18:33;16.83;;;3.45;;
56427;SDS011;42331;53.578;9.760;2024-02-21T08:21:06;12.00;;;2.78;;
56427;SDS011;42331;53.578;9.760;2024-02-21T08:23:37;18.53;;;3.27;;
56427;SDS011;42331;53.578;9.760;2024-02-21T08:26:08;15.23;;;2.88;;
56427;SDS011;42331;53.578;9.760;2024-02-21T08:28:39;16.33;;;3.23;;
56427;SDS011;42331;53.578;9.760;2024-02-21T08:31:10;11.37;;;3.00;;
56427;SDS011;42331;53.578;9.760;2024-02-21T08:33:42;17.17;;;3.38;;
56427;SDS011;42331;53.578;9.760;2024-02-21T08:36:19;11.55;;;3.15;;
56427;SDS011;42331;53.578;9.760;2024-02-21T08:38:50;17.67;;;3.15;;
56427;SDS011;42331;53.578;9.760;2024-02-21T08:41:21;17.52;;;3.78;;
56427;SDS011;42331;53.578;9.760;2024-02-21T08:43:54;21.10;;;3.45;;
56427;SDS011;42331;53.578;9.760;2024-02-21T08:46:25;12.50;;;2.53;;
56427;SDS011;42331;53.578;9.760;2024-02-21T08:48:56;18.25;;;3.47;;
56427;SDS011;42331;53.578;9.760;2024-02-21T08:51:27;18.07;;;2.93;;
56427;SDS011;42331;53.578;9.760;2024-02-21T08:53:59;15.55;;;3.13;;
56427;SDS011;42331;53.578;9.760;2024-02-21T08:59:02;17.63;;;3.17;;
56427;SDS011;42331;53.578;9.760;2024-02-21T09:01:33;10.63;;;2.57;;
56427;SDS011;42331;53.578;9.760;2024-02-21T09:04:05;22.30;;;3.03;;
56427;SDS011;42331;53.578;9.760;2024-02-21T09:06:36;15.32;;;3.10;;
56427;SDS011;42331;53.578;9.760;2024-02-21T09:09:11;18.83;;;3.08;;
56427;SDS011;42331;53.578;9.760;2024-02-21T09:11:42;15.93;;;2.43;;
56427;SDS011;42331;53.578;9.760;2024-02-21T09:14:13;12.63;;;2.47;;
56427;SDS011;42331;53.578;9.760;2024-02-21T09:16:45;10.50;;;2.15;;
56427;SDS011;42331;53.578;9.760;2024-02-21T09:19:16;16.50;;;2.63;;
56427;SDS011;42331;53.578;9.760;2024-02-21T09:21:48;11.43;;;2.65;;
56427;SDS011;42331;53.578;9.760;2024-02-21T09:24:19;21.67;;;2.70;;
56427;SDS011;42331;53.578;9.760;2024-02-21T09:26:50;10.13;;;2.05;;
56427;SDS011;42331;53.578;9.760;2024-02-21T09:29:21;8.87;;;2.33;;
56427;SDS011;42331;53.578;9.760;2024-02-21T09:31:52;8.10;;;1.53;;
56427;SDS011;42331;53.578;9.760;2024-02-21T09:34:23;13.17;;;2.60;;
56427;SDS011;42331;53.578;9.760;2024-02-21T09:36:54;16.50;;;2.83;;
56427;SDS011;42331;53.578;9.760;2024-02-21T09:39:25;7.05;;;1.80;;
56427;SDS011;42331;53.578;9.760;2024-02-21T09:42:02;6.97;;;1.77;;
56427;SDS011;42331;53.578;9.760;2024-02-21T09:44:36;10.55;;;2.33;;
56427;SDS011;42331;53.578;9.760;2024-02-21T09:47:11;13.00;;;2.28;;
56427;SDS011;42331;53.578;9.760;2024-02-21T09:49:43;12.48;;;2.40;;
56427;SDS011;42331;53.578;9.760;2024-02-21T09:52:15;12.52;;;2.33;;
56427;SDS011;42331;53.578;9.760;2024-02-21T09:54:47;14.07;;;3.13;;
56427;SDS011;42331;53.578;9.760;2024-02-21T09:59:50;6.22;;;2.65;;
56427;SDS011;42331;53.578;9.760;2024-02-21T10:02:21;7.07;;;3.22;;
56427;SDS011;42331;53.578;9.760;2024-02-21T10:04:52;6.73;;;2.93;;
56427;SDS011;42331;53.578;9.760;2024-02-21T10:07:24;10.98;;;3.80;;
56427;SDS011;42331;53.578;9.760;2024-02-21T10:10:05;7.05;;;4.13;;
56427;SDS011;42331;53.578;9.760;2024-02-21T10:12:36;12.45;;;6.38;;
56427;SDS011;42331;53.578;9.760;2024-02-21T10:15:07;10.05;;;5.03;;
56427;SDS011;42331;53.578;9.760;2024-02-21T10:17:39;13.82;;;7.35;;
56427;SDS011;42331;53.578;9.760;2024-02-21T10:20:10;17.67;;;8.55;;
56427;SDS011;42331;53.578;9.760;2024-02-21T10:22:42;18.42;;;8.95;;
56427;SDS011;42331;53.578;9.760;2024-02-21T10:25:13;16.97;;;9.63;;
56427;SDS011;42331;53.578;9.760;2024-02-21T10:27:45;19.45;;;9.15;;
56427;SDS011;42331;53.578;9.760;2024-02-21T10:30:16;12.73;;;7.33;;
56427;SDS011;42331;53.578;9.760;2024-02-21T10:32:48;28.27;;;11.25;;
56427;SDS011;42331;53.578;9.760;2024-02-21T10:35:31;19.50;;;10.55;;
56427;SDS011;42331;53.578;9.760;2024-02-21T10:38:02;24.38;;;11.55;;
56427;SDS011;42331;53.578;9.760;2024-02-21T10:40:33;32.45;;;15.07;;
56427;SDS011;42331;53.578;9.760;2024-02-21T10:43:04;31.77;;;16.60;;
56427;SDS011;42331;53.578;9.760;2024-02-21T10:45:36;32.10;;;16.88;;
56427;SDS011;42331;53.578;9.760;2024-02-21T10:48:11;39.78;;;18.20;;
56427;SDS011;42331;53.578;9.760;2024-02-21T10:53:23;40.97;;;19.52;;
56427;SDS011;42331;53.578;9.760;2024-02-21T10:56:01;44.75;;;19.70;;
56427;SDS011;42331;53.578;9.760;2024-02-21T10:58:36;36.10;;;18.17;;
56427;SDS011;42331;53.578;9.760;2024-02-21T11:01:08;39.40;;;19.63;;
56427;SDS011;42331;53.578;9.760;2024-02-21T11:03:39;44.60;;;19.95;;
56427;SDS011;42331;53.578;9.760;2024-02-21T11:06:11;34.78;;;19.55;;
56427;SDS011;42331;53.578;9.760;2024-02-21T11:08:42;39.03;;;18.30;;
56427;SDS011;42331;53.578;9.760;2024-02-21T11:11:14;35.67;;;19.02;;
56427;SDS011;42331;53.578;9.760;2024-02-21T11:13:50;38.13;;;18.75;;
56427;SDS011;42331;53.578;9.760;2024-02-21T11:16:21;45.93;;;18.93;;
56427;SDS011;42331;53.578;9.760;2024-02-21T11:18:53;33.78;;;17.02;;
56427;SDS011;42331;53.578;9.760;2024-02-21T11:21:34;36.22;;;17.80;;
56427;SDS011;42331;53.578;9.760;2024-02-21T11:24:06;32.83;;;16.25;;
56427;SDS011;42331;53.578;9.760;2024-02-21T11:26:37;29.02;;;15.07;;
56427;SDS011;42331;53.578;9.760;2024-02-21T11:29:09;26.00;;;13.27;;
56427;SDS011;42331;53.578;9.760;2024-02-21T11:31:41;24.35;;;12.73;;
56427;SDS011;42331;53.578;9.760;2024-02-21T11:34:12;25.05;;;12.77;;
56427;SDS011;42331;53.578;9.760;2024-02-21T11:36:47;25.25;;;11.75;;
56427;SDS011;42331;53.578;9.760;2024-02-21T11:44:31;23.60;;;10.60;;
56427;SDS011;42331;53.578;9.760;2024-02-21T11:47:03;25.33;;;10.80;;
56427;SDS011;42331;53.578;9.760;2024-02-21T11:49:38;20.20;;;10.73;;
56427;SDS011;42331;53.578;9.760;2024-02-21T11:52:12;21.13;;;10.65;;
56427;SDS011;42331;53.578;9.760;2024-02-21T11:54:45;20.92;;;10.65;;
56427;SDS011;42331;53.578;9.760;2024-02-21T11:57:17;21.85;;;10.18;;
56427;SDS011;42331;53.578;9.760;2024-02-21T11:59:48;23.58;;;10.75;;
56427;SDS011;42331;53.578;9.760;2024-02-21T12:02:20;21.75;;;10.23;;
56427;SDS011;42331;53.578;9.760;2024-02-21T12:04:51;20.17;;;9.70;;
56427;SDS011;42331;53.578;9.760;2024-02-21T12:07:24;22.63;;;10.82;;
56427;SDS011;42331;53.578;9.760;2024-02-21T12:09:58;23.93;;;10.27;;
56427;SDS011;42331;53.578;9.760;2024-02-21T12:12:30;21.15;;;10.23;;
56427;SDS011;42331;53.578;9.760;2024-02-21T12:15:06;26.23;;;10.98;;
56427;SDS011;42331;53.578;9.760;2024-02-21T12:17:39;20.67;;;10.85;;
56427;SDS011;42331;53.578;9.760;2024-02-21T12:20:10;20.98;;;10.10;;
56427;SDS011;42331;53.578;9.760;2024-02-21T12:22:41;23.85;;;11.10;;
56427;SDS011;42331;53.578;9.760;2024-02-21T12:27:50;22.25;;;11.18;;
56427;SDS011;42331;53.578;9.760;2024-02-21T12:30:21;18.33;;;10.33;;
56427;SDS011;42331;53.578;9.760;2024-02-21T12:32:52;25.37;;;11.20;;
56427;SDS011;42331;53.578;9.760;2024-02-21T12:35:23;23.57;;;10.87;;
56427;SDS011;42331;53.578;9.760;2024-02-21T12:37:54;23.83;;;10.97;;
56427;SDS011;42331;53.578;9.760;2024-02-21T12:40:25;22.03;;;10.53;;
56427;SDS011;42331;53.578;9.760;2024-02-21T12:43:02;19.40;;;10.38;;
56427;SDS011;42331;53.578;9.760;2024-02-21T12:45:33;18.63;;;11.02;;
56427;SDS011;42331;53.578;9.760;2024-02-21T12:48:04;26.03;;;10.90;;
56427;SDS011;42331;53.578;9.760;2024-02-21T12:50:36;22.75;;;11.07;;
56427;SDS011;42331;53.578;9.760;2024-02-21T12:53:07;24.30;;;11.27;;
56427;SDS011;42331;53.578;9.760;2024-02-21T12:55:38;22.83;;;10.30;;
56427;SDS011;42331;53.578;9.760;2024-02-21T12:58:09;22.08;;;11.60;;
56427;SDS011;42331;53.578;9.760;2024-02-21T13:00:40;22.98;;;12.20;;
56427;SDS011;42331;53.578;9.760;2024-02-21T13:03:11;23.58;;;11.13;;
56427;SDS011;42331;53.578;9.760;2024-02-21T13:05:43;23.80;;;10.73;;
56427;SDS011;42331;53.578;9.760;2024-02-21T13:08:14;24.23;;;12.13;;
56427;SDS011;42331;53.578;9.760;2024-02-21T13:10:45;28.38;;;11.80;;
56427;SDS011;42331;53.578;9.760;2024-02-21T13:13:18;20.70;;;10.85;;
56427;SDS011;42331;53.578;9.760;2024-02-21T13:15:49;25.30;;;11.33;;
56427;SDS011;42331;53.578;9.760;2024-02-21T13:18:20;29.33;;;11.35;;
56427;SDS011;42331;53.578;9.760;2024-02-21T13:20:54;17.53;;;10.17;;
56427;SDS011;42331;53.578;9.760;2024-02-21T13:23:26;20.40;;;10.88;;
56427;SDS011;42331;53.578;9.760;2024-02-21T13:25:57;18.55;;;9.13;;
56427;SDS011;42331;53.578;9.760;2024-02-21T13:28:28;24.47;;;10.13;;
56427;SDS011;42331;53.578;9.760;2024-02-21T13:31:01;17.42;;;9.57;;
56427;SDS011;42331;53.578;9.760;2024-02-21T13:33:33;25.90;;;10.68;;
56427;SDS011;42331;53.578;9.760;2024-02-21T13:36:04;21.83;;;9.55;;
56427;SDS011;42331;53.578;9.760;2024-02-21T13:38:35;23.48;;;11.20;;
56427;SDS011;42331;53.578;9.760;2024-02-21T13:41:06;22.77;;;9.97;;
56427;SDS011;42331;53.578;9.760;2024-02-21T13:43:37;15.07;;;8.90;;
56427;SDS011;42331;53.578;9.760;2024-02-21T13:46:08;19.85;;;10.48;;
56427;SDS011;42331;53.578;9.760;2024-02-21T13:48:41;16.05;;;9.57;;
56427;SDS011;42331;53.578;9.760;2024-02-21T13:51:12;21.90;;;9.38;;
56427;SDS011;42331;53.578;9.760;2024-02-21T13:53:43;18.47;;;9.73;;
56427;SDS011;42331;53.578;9.760;2024-02-21T13:56:14;21.83;;;9.43;;
56427;SDS011;42331;53.578;9.760;2024-02-21T13:58:45;18.35;;;9.07;;
56427;SDS011;42331;53.578;9.760;2024-02-21T14:01:16;12.10;;;6.35;;
56427;SDS011;42331;53.578;9.760;2024-02-21T14:06:19;17.27;;;8.13;;
56427;SDS011;42331;53.578;9.760;2024-02-21T14:08:50;18.33;;;8.63;;
56427;SDS011;42331;53.578;9.760;2024-02-21T14:11:21;14.13;;;8.25;;
56427;SDS011;42331;53.578;9.760;2024-02-21T14:13:53;20.38;;;9.07;;
56427;SDS011;42331;53.578;9.760;2024-02-21T14:16:27;16.50;;;8.25;;
56427;SDS011;42331;53.578;9.760;2024-02-21T14:18:59;17.85;;;8.05;;
56427;SDS011;42331;53.578;9.760;2024-02-21T14:21:30;17.90;;;8.20;;
56427;SDS011;42331;53.578;9.760;2024-02-21T14:24:02;15.47;;;7.17;;
56427;SDS011;42331;53.578;9.760;2024-02-21T14:26:33;16.90;;;6.50;;
56427;SDS011;42331;53.578;9.760;2024-02-21T14:29:05;15.40;;;7.00;;
56427;SDS011;42331;53.578;9.760;2024-02-21T14:31:36;16.73;;;7.43;;
56427;SDS011;42331;53.578;9.760;2024-02-21T14:34:07;14.67;;;7.07;;
56427;SDS011;42331;53.578;9.760;2024-02-21T14:36:39;11.88;;;6.13;;
56427;SDS011;42331;53.578;9.760;2024-02-21T14:39:11;15.33;;;6.40;;
56427;SDS011;42331;53.578;9.760;2024-02-21T14:41:42;15.53;;;6.40;;
56427;SDS011;42331;53.578;9.760;2024-02-21T14:44:13;17.45;;;6.70;;
56427;SDS011;42331;53.578;9.760;2024-02-21T14:46:44;13.90;;;6.07;;
56427;SDS011;42331;53.578;9.760;2024-02-21T14:49:15;11.98;;;5.72;;
56427;SDS011;42331;53.578;9.760;2024-02-21T14:51:47;11.77;;;5.37;;
56427;SDS011;42331;53.578;9.760;2024-02-21T14:54:18;15.67;;;5.70;;
56427;SDS011;42331;53.578;9.760;2024-02-21T14:56:49;10.90;;;5.60;;
56427;SDS011;42331;53.578;9.760;2024-02-21T14:59:20;12.20;;;5.60;;
56427;SDS011;42331;53.578;9.760;2024-02-21T15:01:51;10.85;;;5.50;;
56427;SDS011;42331;53.578;9.760;2024-02-21T15:04:22;12.03;;;6.00;;
56427;SDS011;42331;53.578;9.760;2024-02-21T15:06:54;8.13;;;4.27;;
56427;SDS011;42331;53.578;9.760;2024-02-21T15:09:25;10.07;;;5.43;;
56427;SDS011;42331;53.578;9.760;2024-02-21T15:11:56;16.65;;;6.10;;
56427;SDS011;42331;53.578;9.760;2024-02-21T15:14:27;11.70;;;5.53;;